sensor_id;sensor_type;location;lat;lon;timestamp;pressure;altitude;pressure_sealevel;temperature;humidity
61906;BME280;47863;55.766;37.672;2023-05-29T00:00:16;100129.38;;;11.39;51.68
61906;BME280;47863;55.766;37.672;2023-05-29T00:02:44;100145.31;;;11.40;51.76
61906;BME280;47863;55.766;37.672;2023-05-29T00:05:11;100124.25;;;11.27;51.89
61906;BME280;47863;55.766;37.672;2023-05-29T00:07:38;100119.53;;;11.21;51.99
61906;BME280;47863;55.766;37.672;2023-05-29T00:10:05;100145.94;;;11.34;51.86
61906;BME280;47863;55.766;37.672;2023-05-29T00:12:32;100156.00;;;11.32;52.18
61906;BME280;47863;55.766;37.672;2023-05-29T00:14:57;100135.13;;;11.18;52.09
61906;BME280;47863;55.766;37.672;2023-05-29T00:17:23;100103.81;;;11.00;52.52
61906;BME280;47863;55.766;37.672;2023-05-29T00:19:50;100152.91;;;11.27;52.50
61906;BME280;47863;55.766;37.672;2023-05-29T00:22:16;100161.28;;;11.24;52.54
61906;BME280;47863;55.766;37.672;2023-05-29T00:24:41;100097.00;;;10.88;52.57
61906;BME280;47863;55.766;37.672;2023-05-29T00:27:07;100156.22;;;11.21;52.57
61906;BME280;47863;55.766;37.672;2023-05-29T00:29:34;100155.41;;;11.20;52.58
61906;BME280;47863;55.766;37.672;2023-05-29T00:32:01;100153.00;;;11.17;52.47
61906;BME280;47863;55.766;37.672;2023-05-29T00:34:27;100140.31;;;11.01;52.68
61906;BME280;47863;55.766;37.672;2023-05-29T00:36:53;100153.66;;;11.11;52.78
61906;BME280;47863;55.766;37.672;2023-05-29T00:39:21;100156.84;;;11.15;52.85
61906;BME280;47863;55.766;37.672;2023-05-29T00:41:47;100159.69;;;11.13;52.61
61906;BME280;47863;55.766;37.672;2023-05-29T00:44:18;100156.84;;;11.15;52.67
61906;BME280;47863;55.766;37.672;2023-05-29T00:46:43;100142.72;;;11.04;53.38
61906;BME280;47863;55.766;37.672;2023-05-29T00:49:10;100155.34;;;11.12;52.76
61906;BME280;47863;55.766;37.672;2023-05-29T00:51:37;100144.72;;;11.02;52.80
61906;BME280;47863;55.766;37.672;2023-05-29T00:54:05;100137.97;;;10.98;53.34
61906;BME280;47863;55.766;37.672;2023-05-29T00:56:33;100160.03;;;11.10;53.37
61906;BME280;47863;55.766;37.672;2023-05-29T00:59:00;100135.75;;;10.94;53.17
61906;BME280;47863;55.766;37.672;2023-05-29T01:01:26;100097.19;;;10.68;53.15
61906;BME280;47863;55.766;37.672;2023-05-29T01:03:55;100157.78;;;11.05;53.35
61906;BME280;47863;55.766;37.672;2023-05-29T01:06:23;100163.69;;;11.09;53.37
61906;BME280;47863;55.766;37.672;2023-05-29T01:08:48;100169.03;;;11.09;53.48
61906;BME280;47863;55.766;37.672;2023-05-29T01:11:39;100170.56;;;11.11;53.34
61906;BME280;47863;55.766;37.672;2023-05-29T01:14:08;100174.94;;;11.13;53.58
61906;BME280;47863;55.766;37.672;2023-05-29T01:16:47;100181.13;;;11.13;53.43
61906;BME280;47863;55.766;37.672;2023-05-29T01:22:20;100180.84;;;11.16;53.21
61906;BME280;47863;55.766;37.672;2023-05-29T01:27:37;100175.16;;;11.19;53.41
61906;BME280;47863;55.766;37.672;2023-05-29T01:30:05;100164.91;;;11.15;53.32
61906;BME280;47863;55.766;37.672;2023-05-29T01:32:33;100175.69;;;11.23;53.05
61906;BME280;47863;55.766;37.672;2023-05-29T01:35:00;100179.06;;;11.25;53.15
61906;BME280;47863;55.766;37.672;2023-05-29T01:37:25;100186.13;;;11.26;53.07
61906;BME280;47863;55.766;37.672;2023-05-29T01:39:53;100187.63;;;11.28;52.87
61906;BME280;47863;55.766;37.672;2023-05-29T01:42:19;100170.66;;;11.20;52.97
61906;BME280;47863;55.766;37.672;2023-05-29T01:44:45;100181.28;;;11.29;53.24
61906;BME280;47863;55.766;37.672;2023-05-29T01:47:12;100184.94;;;11.28;53.19
61906;BME280;47863;55.766;37.672;2023-05-29T01:49:38;100179.59;;;11.28;53.09
61906;BME280;47863;55.766;37.672;2023-05-29T01:52:05;100187.84;;;11.35;53.10
61906;BME280;47863;55.766;37.672;2023-05-29T01:54:31;100184.84;;;11.38;53.10
61906;BME280;47863;55.766;37.672;2023-05-29T01:56:56;100159.31;;;11.26;53.09
61906;BME280;47863;55.766;37.672;2023-05-29T01:59:22;100129.16;;;11.06;53.03
61906;BME280;47863;55.766;37.672;2023-05-29T02:01:48;100186.22;;;11.42;52.92
61906;BME280;47863;55.766;37.672;2023-05-29T02:04:14;100180.03;;;11.42;53.11
61906;BME280;47863;55.766;37.672;2023-05-29T02:06:40;100186.75;;;11.46;53.14
61906;BME280;47863;55.766;37.672;2023-05-29T02:09:06;100191.78;;;11.49;53.27
61906;BME280;47863;55.766;37.672;2023-05-29T02:11:32;100162.03;;;11.34;53.21
61906;BME280;47863;55.766;37.672;2023-05-29T02:13:58;100196.72;;;11.54;53.40
61906;BME280;47863;55.766;37.672;2023-05-29T02:16:23;100192.03;;;11.56;53.19
61906;BME280;47863;55.766;37.672;2023-05-29T02:18:49;100194.38;;;11.59;53.48
61906;BME280;47863;55.766;37.672;2023-05-29T02:21:40;100188.84;;;11.60;53.80
61906;BME280;47863;55.766;37.672;2023-05-29T02:24:08;100169.50;;;11.48;53.71
61906;BME280;47863;55.766;37.672;2023-05-29T02:26:34;100189.38;;;11.64;53.27
61906;BME280;47863;55.766;37.672;2023-05-29T02:29:03;100191.06;;;11.65;53.30
61906;BME280;47863;55.766;37.672;2023-05-29T02:31:31;100162.66;;;11.54;53.57
61906;BME280;47863;55.766;37.672;2023-05-29T02:33:56;100159.59;;;11.49;53.43
61906;BME280;47863;55.766;37.672;2023-05-29T02:36:22;100195.34;;;11.76;53.33
61906;BME280;47863;55.766;37.672;2023-05-29T02:38:48;100199.53;;;11.78;53.47
61906;BME280;47863;55.766;37.672;2023-05-29T02:41:14;100196.53;;;11.81;53.41
61906;BME280;47863;55.766;37.672;2023-05-29T02:43:39;100200.88;;;11.82;53.32
61906;BME280;47863;55.766;37.672;2023-05-29T02:46:05;100187.28;;;11.76;53.56
61906;BME280;47863;55.766;37.672;2023-05-29T02:48:30;100205.81;;;11.87;53.50
61906;BME280;47863;55.766;37.672;2023-05-29T02:50:56;100195.28;;;11.94;53.35
61906;BME280;47863;55.766;37.672;2023-05-29T02:53:22;100199.50;;;11.96;53.41
61906;BME280;47863;55.766;37.672;2023-05-29T02:55:48;100200.53;;;12.03;53.54
61906;BME280;47863;55.766;37.672;2023-05-29T02:58:14;100198.53;;;12.05;53.72
61906;BME280;47863;55.766;37.672;2023-05-29T03:00:41;100196.00;;;12.04;53.10
61906;BME280;47863;55.766;37.672;2023-05-29T03:03:07;100184.28;;;12.05;53.28
61906;BME280;47863;55.766;37.672;2023-05-29T03:05:32;100194.53;;;12.09;53.27
61906;BME280;47863;55.766;37.672;2023-05-29T03:07:58;100195.06;;;12.13;53.09
61906;BME280;47863;55.766;37.672;2023-05-29T03:10:24;100208.19;;;12.24;53.00
61906;BME280;47863;55.766;37.672;2023-05-29T03:12:49;100217.94;;;12.34;53.00
61906;BME280;47863;55.766;37.672;2023-05-29T03:15:16;100189.03;;;12.19;52.83
61906;BME280;47863;55.766;37.672;2023-05-29T03:17:46;100222.34;;;12.43;52.83
61906;BME280;47863;55.766;37.672;2023-05-29T03:20:11;100222.53;;;12.49;52.66
61906;BME280;47863;55.766;37.672;2023-05-29T03:22:37;100223.22;;;12.52;52.62
61906;BME280;47863;55.766;37.672;2023-05-29T03:25:03;100222.41;;;12.59;52.76
61906;BME280;47863;55.766;37.672;2023-05-29T03:27:30;100228.13;;;12.64;52.56
61906;BME280;47863;55.766;37.672;2023-05-29T03:29:56;100232.34;;;12.75;52.25
61906;BME280;47863;55.766;37.672;2023-05-29T03:32:23;100239.59;;;12.83;52.50
61906;BME280;47863;55.766;37.672;2023-05-29T03:34:49;100235.78;;;12.94;52.39
61906;BME280;47863;55.766;37.672;2023-05-29T03:37:14;100240.13;;;13.03;52.25
61906;BME280;47863;55.766;37.672;2023-05-29T03:39:40;100242.81;;;13.11;52.16
61906;BME280;47863;55.766;37.672;2023-05-29T03:42:06;100235.94;;;13.17;51.98
61906;BME280;47863;55.766;37.672;2023-05-29T03:44:31;100237.81;;;13.24;52.09
61906;BME280;47863;55.766;37.672;2023-05-29T03:46:57;100240.53;;;13.33;51.90
61906;BME280;47863;55.766;37.672;2023-05-29T03:49:23;100248.63;;;13.41;51.75
61906;BME280;47863;55.766;37.672;2023-05-29T03:51:49;100215.97;;;13.36;51.68
61906;BME280;47863;55.766;37.672;2023-05-29T03:54:15;100239.84;;;13.55;51.68
61906;BME280;47863;55.766;37.672;2023-05-29T03:56:41;100248.94;;;13.71;51.45
61906;BME280;47863;55.766;37.672;2023-05-29T03:59:06;100250.25;;;13.83;51.30
61906;BME280;47863;55.766;37.672;2023-05-29T04:01:32;100250.72;;;13.95;51.06
61906;BME280;47863;55.766;37.672;2023-05-29T04:03:58;100252.38;;;14.04;51.12
61906;BME280;47863;55.766;37.672;2023-05-29T04:06:23;100232.38;;;13.98;50.75
61906;BME280;47863;55.766;37.672;2023-05-29T04:08:49;100254.88;;;14.22;50.94
61906;BME280;47863;55.766;37.672;2023-05-29T04:11:15;100259.56;;;14.28;50.90
61906;BME280;47863;55.766;37.672;2023-05-29T04:13:41;100252.13;;;14.38;50.50
61906;BME280;47863;55.766;37.672;2023-05-29T04:16:07;100253.94;;;14.46;50.74
61906;BME280;47863;55.766;37.672;2023-05-29T04:18:33;100256.59;;;14.54;50.33
61906;BME280;47863;55.766;37.672;2023-05-29T04:20:58;100257.25;;;14.64;50.16
61906;BME280;47863;55.766;37.672;2023-05-29T04:23:24;100248.31;;;14.64;49.93
61906;BME280;47863;55.766;37.672;2023-05-29T04:25:50;100241.38;;;14.70;50.11
61906;BME280;47863;55.766;37.672;2023-05-29T04:28:16;100264.34;;;14.88;50.10
61906;BME280;47863;55.766;37.672;2023-05-29T04:30:42;100263.28;;;14.98;49.65
61906;BME280;47863;55.766;37.672;2023-05-29T04:33:08;100264.63;;;15.02;49.69
61906;BME280;47863;55.766;37.672;2023-05-29T04:35:38;100242.31;;;15.08;49.46
61906;BME280;47863;55.766;37.672;2023-05-29T04:38:03;100248.69;;;15.15;49.61
61906;BME280;47863;55.766;37.672;2023-05-29T04:40:30;100264.75;;;15.32;49.30
61906;BME280;47863;55.766;37.672;2023-05-29T04:42:57;100237.34;;;15.20;48.76
61906;BME280;47863;55.766;37.672;2023-05-29T04:45:26;100266.19;;;15.42;49.15
61906;BME280;47863;55.766;37.672;2023-05-29T04:47:51;100278.09;;;15.48;48.92
61906;BME280;47863;55.766;37.672;2023-05-29T04:50:18;100272.19;;;15.53;48.98
61906;BME280;47863;55.766;37.672;2023-05-29T04:52:44;100284.41;;;15.63;48.83
61906;BME280;47863;55.766;37.672;2023-05-29T04:55:10;100270.13;;;15.78;48.50
61906;BME280;47863;55.766;37.672;2023-05-29T04:57:36;100269.84;;;15.88;48.34
61906;BME280;47863;55.766;37.672;2023-05-29T05:00:03;100260.72;;;15.89;48.19
61906;BME280;47863;55.766;37.672;2023-05-29T05:02:33;100251.53;;;15.98;48.03
61906;BME280;47863;55.766;37.672;2023-05-29T05:04:58;100270.34;;;16.21;47.87
61906;BME280;47863;55.766;37.672;2023-05-29T05:07:24;100275.94;;;16.34;47.86
61906;BME280;47863;55.766;37.672;2023-05-29T05:09:50;100273.31;;;16.41;47.74
61906;BME280;47863;55.766;37.672;2023-05-29T05:12:16;100290.47;;;16.63;47.27
61906;BME280;47863;55.766;37.672;2023-05-29T05:14:41;100283.00;;;16.95;46.90
61906;BME280;47863;55.766;37.672;2023-05-29T05:17:07;100284.38;;;17.27;46.31
61906;BME280;47863;55.766;37.672;2023-05-29T05:19:33;100262.97;;;17.54;45.76
61906;BME280;47863;55.766;37.672;2023-05-29T05:21:58;100276.66;;;17.95;45.66
61906;BME280;47863;55.766;37.672;2023-05-29T05:24:24;100273.03;;;18.16;45.63
61906;BME280;47863;55.766;37.672;2023-05-29T05:26:49;100269.31;;;18.24;45.70
61906;BME280;47863;55.766;37.672;2023-05-29T05:29:15;100263.25;;;18.22;45.39
61906;BME280;47863;55.766;37.672;2023-05-29T05:31:41;100278.97;;;18.33;45.16
61906;BME280;47863;55.766;37.672;2023-05-29T05:34:07;100267.09;;;18.34;44.77
61906;BME280;47863;55.766;37.672;2023-05-29T05:36:32;100276.28;;;18.40;44.84
61906;BME280;47863;55.766;37.672;2023-05-29T05:38:58;100275.09;;;18.49;44.63
61906;BME280;47863;55.766;37.672;2023-05-29T05:41:23;100285.16;;;18.62;44.37
61906;BME280;47863;55.766;37.672;2023-05-29T05:43:50;100266.03;;;18.70;44.00
61906;BME280;47863;55.766;37.672;2023-05-29T05:46:16;100280.56;;;19.04;43.86
61906;BME280;47863;55.766;37.672;2023-05-29T05:48:43;100282.25;;;19.18;43.31
61906;BME280;47863;55.766;37.672;2023-05-29T05:51:08;100290.41;;;19.18;43.48
61906;BME280;47863;55.766;37.672;2023-05-29T05:53:35;100273.25;;;19.05;43.41
61906;BME280;47863;55.766;37.672;2023-05-29T05:56:01;100281.59;;;19.03;43.52
61906;BME280;47863;55.766;37.672;2023-05-29T05:58:27;100287.84;;;19.03;43.25
61906;BME280;47863;55.766;37.672;2023-05-29T06:00:52;100270.28;;;18.93;43.35
61906;BME280;47863;55.766;37.672;2023-05-29T06:03:18;100282.41;;;18.97;43.03
61906;BME280;47863;55.766;37.672;2023-05-29T06:05:44;100292.91;;;19.13;42.74
61906;BME280;47863;55.766;37.672;2023-05-29T06:08:09;100290.00;;;19.28;42.43
61906;BME280;47863;55.766;37.672;2023-05-29T06:10:35;100284.81;;;19.47;41.92
61906;BME280;47863;55.766;37.672;2023-05-29T06:13:01;100290.72;;;19.77;41.32
61906;BME280;47863;55.766;37.672;2023-05-29T06:15:27;100273.75;;;19.88;41.14
61906;BME280;47863;55.766;37.672;2023-05-29T06:17:52;100286.53;;;20.14;40.92
61906;BME280;47863;55.766;37.672;2023-05-29T06:20:20;100267.88;;;20.11;40.75
61906;BME280;47863;55.766;37.672;2023-05-29T06:22:46;100281.47;;;20.18;40.42
61906;BME280;47863;55.766;37.672;2023-05-29T06:25:16;100296.66;;;20.46;40.30
61906;BME280;47863;55.766;37.672;2023-05-29T06:27:44;100285.88;;;21.29;38.84
61906;BME280;47863;55.766;37.672;2023-05-29T06:30:11;100278.50;;;22.55;37.42
61906;BME280;47863;55.766;37.672;2023-05-29T06:32:37;100305.09;;;23.27;37.07
61906;BME280;47863;55.766;37.672;2023-05-29T06:35:03;100302.38;;;23.27;36.66
61906;BME280;47863;55.766;37.672;2023-05-29T06:37:29;100308.19;;;23.01;37.40
61906;BME280;47863;55.766;37.672;2023-05-29T06:39:54;100303.34;;;22.66;36.54
61906;BME280;47863;55.766;37.672;2023-05-29T06:42:21;100299.03;;;22.40;36.77
61906;BME280;47863;55.766;37.672;2023-05-29T06:44:47;100310.09;;;22.45;36.96
61906;BME280;47863;55.766;37.672;2023-05-29T06:47:12;100315.63;;;22.38;36.74
61906;BME280;47863;55.766;37.672;2023-05-29T06:49:38;100317.19;;;22.27;37.30
61906;BME280;47863;55.766;37.672;2023-05-29T06:52:04;100315.47;;;22.33;36.06
61906;BME280;47863;55.766;37.672;2023-05-29T06:54:29;100309.88;;;22.28;35.70
61906;BME280;47863;55.766;37.672;2023-05-29T06:56:55;100310.50;;;22.23;35.92
61906;BME280;47863;55.766;37.672;2023-05-29T06:59:22;100310.69;;;22.28;35.43
61906;BME280;47863;55.766;37.672;2023-05-29T07:01:47;100299.94;;;22.89;34.30
61906;BME280;47863;55.766;37.672;2023-05-29T07:04:13;100295.03;;;24.52;32.36
61906;BME280;47863;55.766;37.672;2023-05-29T07:06:39;100318.25;;;26.10;30.78
61906;BME280;47863;55.766;37.672;2023-05-29T07:09:04;100319.88;;;26.84;30.16
61906;BME280;47863;55.766;37.672;2023-05-29T07:11:30;100316.97;;;27.73;29.27
61906;BME280;47863;55.766;37.672;2023-05-29T07:13:56;100306.84;;;29.42;27.88
61906;BME280;47863;55.766;37.672;2023-05-29T07:16:21;100302.47;;;31.48;26.61
61906;BME280;47863;55.766;37.672;2023-05-29T07:18:47;100321.31;;;33.30;24.91
61906;BME280;47863;55.766;37.672;2023-05-29T07:21:13;100294.31;;;34.62;24.31
61906;BME280;47863;55.766;37.672;2023-05-29T07:23:39;100327.03;;;36.02;23.16
61906;BME280;47863;55.766;37.672;2023-05-29T07:26:05;100326.81;;;37.54;22.34
61906;BME280;47863;55.766;37.672;2023-05-29T07:28:31;100323.16;;;39.12;20.92
61906;BME280;47863;55.766;37.672;2023-05-29T07:30:56;100326.13;;;40.49;19.53
61906;BME280;47863;55.766;37.672;2023-05-29T07:33:22;100325.91;;;41.72;18.91
61906;BME280;47863;55.766;37.672;2023-05-29T07:35:48;100324.59;;;42.77;17.94
61906;BME280;47863;55.766;37.672;2023-05-29T07:38:14;100308.63;;;43.56;16.76
61906;BME280;47863;55.766;37.672;2023-05-29T07:40:39;100314.44;;;44.52;15.79
61906;BME280;47863;55.766;37.672;2023-05-29T07:43:05;100311.16;;;45.33;15.58
61906;BME280;47863;55.766;37.672;2023-05-29T07:45:30;100318.72;;;45.60;14.86
61906;BME280;47863;55.766;37.672;2023-05-29T07:47:56;100320.88;;;45.36;13.79
61906;BME280;47863;55.766;37.672;2023-05-29T07:50:21;100301.16;;;44.56;13.30
61906;BME280;47863;55.766;37.672;2023-05-29T07:52:47;100321.25;;;44.51;13.90
61906;BME280;47863;55.766;37.672;2023-05-29T07:55:13;100325.31;;;43.65;12.43
61906;BME280;47863;55.766;37.672;2023-05-29T07:57:38;100315.16;;;42.86;12.08
61906;BME280;47863;55.766;37.672;2023-05-29T08:00:05;100303.44;;;42.68;11.41
61906;BME280;47863;55.766;37.672;2023-05-29T08:02:31;100315.91;;;43.37;12.13
61906;BME280;47863;55.766;37.672;2023-05-29T08:04:57;100321.06;;;44.17;11.03
61906;BME280;47863;55.766;37.672;2023-05-29T08:07:22;100323.16;;;44.97;11.07
61906;BME280;47863;55.766;37.672;2023-05-29T08:09:48;100321.47;;;45.19;10.31
61906;BME280;47863;55.766;37.672;2023-05-29T08:12:14;100321.00;;;44.60;10.43
61906;BME280;47863;55.766;37.672;2023-05-29T08:14:40;100334.06;;;44.22;9.97
61906;BME280;47863;55.766;37.672;2023-05-29T08:17:05;100326.28;;;43.53;9.59
61906;BME280;47863;55.766;37.672;2023-05-29T08:19:31;100325.66;;;43.05;9.55
61906;BME280;47863;55.766;37.672;2023-05-29T08:21:57;100309.38;;;43.33;9.77
61906;BME280;47863;55.766;37.672;2023-05-29T08:24:23;100309.66;;;44.33;9.77
61906;BME280;47863;55.766;37.672;2023-05-29T08:26:48;100317.91;;;45.25;9.74
61906;BME280;47863;55.766;37.672;2023-05-29T08:29:14;100324.31;;;45.86;9.49
61906;BME280;47863;55.766;37.672;2023-05-29T08:31:39;100310.34;;;46.04;9.17
61906;BME280;47863;55.766;37.672;2023-05-29T08:34:05;100313.09;;;46.01;9.24
61906;BME280;47863;55.766;37.672;2023-05-29T08:36:32;100314.97;;;45.18;8.83
61906;BME280;47863;55.766;37.672;2023-05-29T08:38:58;100311.09;;;45.00;9.03
61906;BME280;47863;55.766;37.672;2023-05-29T08:41:49;100315.44;;;45.24;8.32
61906;BME280;47863;55.766;37.672;2023-05-29T08:44:21;100324.44;;;45.63;8.63
61906;BME280;47863;55.766;37.672;2023-05-29T08:46:54;100288.59;;;45.75;8.25
61906;BME280;47863;55.766;37.672;2023-05-29T08:49:23;100307.81;;;46.40;8.59
61906;BME280;47863;55.766;37.672;2023-05-29T08:51:55;100314.28;;;46.93;7.98
61906;BME280;47863;55.766;37.672;2023-05-29T08:54:23;100294.16;;;46.49;7.94
61906;BME280;47863;55.766;37.672;2023-05-29T08:56:49;100294.19;;;45.33;7.62
61906;BME280;47863;55.766;37.672;2023-05-29T08:59:15;100293.94;;;45.16;7.81
61906;BME280;47863;55.766;37.672;2023-05-29T09:01:41;100317.28;;;45.73;7.95
61906;BME280;47863;55.766;37.672;2023-05-29T09:04:07;100299.25;;;46.33;7.47
61906;BME280;47863;55.766;37.672;2023-05-29T09:06:34;100299.72;;;47.01;7.68
61906;BME280;47863;55.766;37.672;2023-05-29T09:08:59;100281.94;;;47.08;7.17
61906;BME280;47863;55.766;37.672;2023-05-29T09:11:26;100298.25;;;47.33;7.53
61906;BME280;47863;55.766;37.672;2023-05-29T09:13:52;100287.78;;;46.70;6.82
61906;BME280;47863;55.766;37.672;2023-05-29T09:16:18;100299.88;;;46.60;7.02
61906;BME280;47863;55.766;37.672;2023-05-29T09:18:44;100250.44;;;45.61;7.12
61906;BME280;47863;55.766;37.672;2023-05-29T09:21:27;100287.19;;;45.58;7.08
61906;BME280;47863;55.766;37.672;2023-05-29T09:24:03;100283.81;;;46.27;7.28
61906;BME280;47863;55.766;37.672;2023-05-29T09:26:29;100282.28;;;46.96;7.30
61906;BME280;47863;55.766;37.672;2023-05-29T09:28:55;100282.88;;;47.30;7.42
61906;BME280;47863;55.766;37.672;2023-05-29T09:31:21;100276.50;;;47.62;6.84
61906;BME280;47863;55.766;37.672;2023-05-29T09:33:47;100281.41;;;47.97;6.71
61906;BME280;47863;55.766;37.672;2023-05-29T09:36:20;100281.81;;;47.96;6.49
61906;BME280;47863;55.766;37.672;2023-05-29T09:38:47;100272.50;;;48.10;7.13
61906;BME280;47863;55.766;37.672;2023-05-29T09:41:13;100268.38;;;48.57;7.02
61906;BME280;47863;55.766;37.672;2023-05-29T09:43:45;100279.66;;;49.04;6.54
61906;BME280;47863;55.766;37.672;2023-05-29T09:46:15;100279.66;;;48.97;5.99
61906;BME280;47863;55.766;37.672;2023-05-29T09:48:42;100256.19;;;48.75;6.45
61906;BME280;47863;55.766;37.672;2023-05-29T09:51:19;100262.31;;;48.44;6.77
61906;BME280;47863;55.766;37.672;2023-05-29T09:53:45;100244.88;;;48.06;6.70
61906;BME280;47863;55.766;37.672;2023-05-29T09:56:12;100254.63;;;48.16;6.69
61906;BME280;47863;55.766;37.672;2023-05-29T09:58:42;100253.00;;;48.08;6.75
61906;BME280;47863;55.766;37.672;2023-05-29T10:01:14;100251.41;;;48.03;5.72
61906;BME280;47863;55.766;37.672;2023-05-29T10:03:42;100262.75;;;48.32;6.53
61906;BME280;47863;55.766;37.672;2023-05-29T10:06:10;100246.13;;;48.02;6.71
61906;BME280;47863;55.766;37.672;2023-05-29T10:08:46;100259.09;;;48.03;6.31
61906;BME280;47863;55.766;37.672;2023-05-29T10:11:21;100252.16;;;47.61;6.86
61906;BME280;47863;55.766;37.672;2023-05-29T10:13:51;100236.34;;;47.67;6.75
61906;BME280;47863;55.766;37.672;2023-05-29T10:16:21;100255.00;;;47.75;6.65
61906;BME280;47863;55.766;37.672;2023-05-29T10:18:53;100242.84;;;47.75;6.48
61906;BME280;47863;55.766;37.672;2023-05-29T10:21:26;100248.94;;;47.80;6.83
61906;BME280;47863;55.766;37.672;2023-05-29T10:23:53;100254.22;;;47.85;6.60
61906;BME280;47863;55.766;37.672;2023-05-29T10:26:27;100251.00;;;47.94;6.86
61906;BME280;47863;55.766;37.672;2023-05-29T10:29:02;100243.06;;;47.12;6.87
61906;BME280;47863;55.766;37.672;2023-05-29T10:32:05;100251.25;;;46.51;6.50
61906;BME280;47863;55.766;37.672;2023-05-29T10:34:44;100230.69;;;45.27;7.36
61906;BME280;47863;55.766;37.672;2023-05-29T10:40:03;100235.84;;;44.61;6.76
61906;BME280;47863;55.766;37.672;2023-05-29T10:42:49;100227.88;;;43.90;6.85
61906;BME280;47863;55.766;37.672;2023-05-29T10:50:40;100234.84;;;40.80;7.89
61906;BME280;47863;55.766;37.672;2023-05-29T10:53:07;100231.19;;;40.39;7.68
61906;BME280;47863;55.766;37.672;2023-05-29T10:55:39;100233.72;;;40.19;7.82
61906;BME280;47863;55.766;37.672;2023-05-29T10:58:06;100232.91;;;40.19;8.05
61906;BME280;47863;55.766;37.672;2023-05-29T11:00:32;100221.44;;;40.36;8.27
61906;BME280;47863;55.766;37.672;2023-05-29T11:03:04;100225.69;;;40.95;7.86
61906;BME280;47863;55.766;37.672;2023-05-29T11:05:30;100184.50;;;41.15;7.96
61906;BME280;47863;55.766;37.672;2023-05-29T11:07:59;100217.31;;;41.99;7.72
61906;BME280;47863;55.766;37.672;2023-05-29T11:11:05;100216.38;;;42.78;7.53
61906;BME280;47863;55.766;37.672;2023-05-29T11:13:35;100209.22;;;43.40;7.49
61906;BME280;47863;55.766;37.672;2023-05-29T11:16:11;100218.78;;;43.78;7.13
61906;BME280;47863;55.766;37.672;2023-05-29T11:18:42;100222.69;;;43.50;7.14
61906;BME280;47863;55.766;37.672;2023-05-29T11:23:41;100200.47;;;43.25;7.51
61906;BME280;47863;55.766;37.672;2023-05-29T11:26:08;100200.06;;;43.27;7.39
61906;BME280;47863;55.766;37.672;2023-05-29T11:28:36;100176.63;;;43.23;7.45
61906;BME280;47863;55.766;37.672;2023-05-29T11:31:08;100198.81;;;43.44;7.12
61906;BME280;47863;55.766;37.672;2023-05-29T11:33:37;100202.16;;;43.49;7.49
61906;BME280;47863;55.766;37.672;2023-05-29T11:36:05;100200.38;;;43.41;7.22
61906;BME280;47863;55.766;37.672;2023-05-29T11:38:32;100201.88;;;42.96;7.63
61906;BME280;47863;55.766;37.672;2023-05-29T11:40:57;100194.78;;;42.31;7.54
61906;BME280;47863;55.766;37.672;2023-05-29T11:43:24;100181.88;;;41.51;7.70
61906;BME280;47863;55.766;37.672;2023-05-29T11:45:50;100192.69;;;40.27;7.83
61906;BME280;47863;55.766;37.672;2023-05-29T11:48:15;100189.50;;;39.79;8.43
61906;BME280;47863;55.766;37.672;2023-05-29T11:50:41;100180.19;;;39.09;8.26
61906;BME280;47863;55.766;37.672;2023-05-29T11:53:07;100177.31;;;38.24;8.98
61906;BME280;47863;55.766;37.672;2023-05-29T11:55:33;100157.00;;;37.68;8.99
61906;BME280;47863;55.766;37.672;2023-05-29T11:58:00;100169.19;;;37.63;8.80
61906;BME280;47863;55.766;37.672;2023-05-29T12:00:37;100154.09;;;37.47;9.07
61906;BME280;47863;55.766;37.672;2023-05-29T12:03:04;100149.56;;;36.99;9.57
61906;BME280;47863;55.766;37.672;2023-05-29T12:05:45;100161.84;;;36.63;9.70
61906;BME280;47863;55.766;37.672;2023-05-29T12:08:11;100164.00;;;36.00;10.00
61906;BME280;47863;55.766;37.672;2023-05-29T12:10:37;100163.34;;;35.63;9.92
61906;BME280;47863;55.766;37.672;2023-05-29T12:13:03;100134.78;;;35.26;10.07
61906;BME280;47863;55.766;37.672;2023-05-29T12:15:29;100149.47;;;35.18;10.05
61906;BME280;47863;55.766;37.672;2023-05-29T12:17:55;100158.81;;;34.99;10.31
61906;BME280;47863;55.766;37.672;2023-05-29T12:20:24;100149.06;;;34.51;10.60
61906;BME280;47863;55.766;37.672;2023-05-29T12:22:59;100136.94;;;33.64;11.14
61906;BME280;47863;55.766;37.672;2023-05-29T12:25:26;100133.56;;;32.26;11.76
61906;BME280;47863;55.766;37.672;2023-05-29T12:27:55;100136.13;;;30.71;12.48
61906;BME280;47863;55.766;37.672;2023-05-29T12:30:21;100142.66;;;29.34;13.31
61906;BME280;47863;55.766;37.672;2023-05-29T12:32:52;100144.06;;;28.07;14.17
61906;BME280;47863;55.766;37.672;2023-05-29T12:35:22;100125.81;;;26.83;15.21
61906;BME280;47863;55.766;37.672;2023-05-29T12:40:16;100144.75;;;25.69;15.39
61906;BME280;47863;55.766;37.672;2023-05-29T12:42:42;100137.41;;;25.36;15.28
61906;BME280;47863;55.766;37.672;2023-05-29T12:45:08;100117.63;;;25.00;15.67
61906;BME280;47863;55.766;37.672;2023-05-29T12:47:36;100100.06;;;24.67;15.93
61906;BME280;47863;55.766;37.672;2023-05-29T12:50:28;100129.00;;;24.63;16.37
61906;BME280;47863;55.766;37.672;2023-05-29T12:55:28;100131.63;;;24.29;16.87
61906;BME280;47863;55.766;37.672;2023-05-29T12:57:57;100101.84;;;24.04;16.80
61906;BME280;47863;55.766;37.672;2023-05-29T13:00:23;100116.81;;;24.13;16.61
61906;BME280;47863;55.766;37.672;2023-05-29T13:02:49;100124.03;;;24.20;16.36
61906;BME280;47863;55.766;37.672;2023-05-29T13:05:15;100123.69;;;24.16;16.63